Date,TemperatureHighF,TemperatureAvgF,TemperatureLowF,DewpointHighF,DewpointAvgF,DewpointLowF,HumidityHigh,HumidityAvg,HumidityLow,PressureMaxIn,PressureMinIn,WindSpeedMaxMPH,WindSpeedAvgMPH,GustSpeedMaxMPH,PrecipitationSumIn
2012-12-1,48.9,46.8,44.4,46.0,43.8,39.3,91,89,81,30.46,30.37,18,4,18,0.00
2012-12-2,53.1,47.1,41.2,49.6,44.4,39.3,95,90,84,30.39,30.10,15,2,15,0.02
2012-12-3,65.8,54.4,47.1,54.2,48.9,43.6,93,83,60,30.24,30.10,13,1,13,0.00
2012-12-4,60.1,53.1,47.1,55.3,50.8,44.3,95,92,84,30.26,29.99,15,3,15,0.00
2012-12-5,56.7,51.1,36.4,53.2,41.0,22.0,95,70,49,30.24,29.90,29,4,29,0.01
2012-12-6,41.0,34.9,30.6,28.2,24.5,21.6,83,66,53,30.35,30.22,13,1,13,0.00
2012-12-7,47.8,41.4,30.9,45.6,38.2,26.8,92,88,84,30.28,29.99,8,0,8,0.23
2012-12-8,53.3,51.0,47.8,51.8,49.2,45.6,96,94,92,30.00,29.86,9,0,9,0.75
2012-12-9,53.9,48.8,44.9,52.8,46.9,41.9,96,93,86,30.22,29.97,18,2,18,0.54
2012-12-10,58.2,55.4,52.3,57.4,54.4,51.2,97,97,96,29.97,29.55,12,2,12,0.39
2012-12-11,59.2,46.9,41.6,58.3,41.8,35.2,98,83,66,30.18,29.56,25,2,25,0.09
2012-12-12,45.5,40.9,37.3,35.2,30.2,27.0,78,66,49,30.42,30.17,11,1,11,0.00
2012-12-13,46.2,39.8,32.1,31.9,29.9,28.0,85,68,54,30.44,30.31,17,1,17,0.00
2012-12-14,50.6,39.1,29.6,32.9,29.1,26.0,89,69,43,30.31,30.14,17,1,17,0.00
2012-12-15,48.9,42.4,34.1,41.5,34.7,27.3,84,74,67,30.30,30.16,10,1,10,0.00
2012-12-16,53.2,50.3,47.5,50.6,47.3,41.6,95,90,80,30.18,29.86,14,2,14,0.30
2012-12-17,52.1,47.3,44.5,50.7,46.0,43.1,96,95,95,29.87,29.58,18,3,18,0.13
2012-12-18,58.1,51.9,42.1,54.0,47.0,35.4,97,84,66,29.64,29.44,24,4,24,0.38
2012-12-19,50.1,43.3,39.2,35.4,32.0,29.6,77,65,50,30.11,29.63,26,4,26,0.00
2012-12-20,50.7,41.6,33.5,46.7,34.5,26.8,86,76,67,30.20,29.74,18,2,18,0.00
2012-12-21,56.2,46.5,37.0,54.4,40.2,28.6,95,79,65,29.74,29.13,41,8,41,0.43
2012-12-22,42.0,38.6,35.4,31.7,27.1,23.9,82,64,50,29.86,29.36,31,8,31,0.00
2012-12-23,43.2,37.0,31.7,28.4,25.0,22.8,73,62,46,29.98,29.85,15,2,15,0.00
2012-12-24,43.6,36.8,29.3,41.4,29.4,22.5,92,75,56,30.08,29.88,8,0,8,0.17
2012-12-25,45.2,40.8,35.5,43.1,35.7,28.8,94,83,71,30.23,29.86,17,3,17,0.01
2012-12-26,52.9,40.4,32.6,51.7,36.6,27.3,96,86,77,30.26,29.28,33,6,33,1.72
2012-12-27,53.2,40.2,31.6,52.1,35.8,23.5,96,85,69,29.85,29.18,31,7,31,0.43
2012-12-28,40.1,34.1,30.1,28.3,25.5,23.0,80,71,61,30.07,29.85,21,2,21,0.00
2012-12-29,43.0,35.8,30.1,40.0,32.5,24.6,93,88,80,30.03,29.46,20,2,20,0.33
2012-12-30,38.1,33.8,30.0,30.4,21.2,-99.9,91,61,50,30.21,29.59,34,2,34,0.01
2012-12-31,40.7,34.6,28.3,29.5,23.6,15.9,73,64,57,30.23,29.89,19,2,19,0.00